Air Sicilia Virtual Airways - Route

Air Sicilia Virtual Airways - SIC052A

( IT ) LIRU - 09:00
Urbe Airport
ROMA ( )
plane_to ( IT ) LIRS - 9:45
Grosseto Airport
GROSETTO ( GRS )

AIRPORT NEAR NAVIGATION AIDS

Type Name Frequency
NDB Urbe 285 KHZ

METAR / TAF
LIRU 191250Z VRB03KT 9999 FEW030 32/17 Q1014

RUNWAY INFORMATION

Runway Runway length Runway width Runway elevation Runway displaced threshold Runway heading
16 3543 98 55 361 160
34 3543 98 55 820 340

AIRPORT FREQUENCIES

Type Name Frequency
GND GND 122.7 MHZ
TWR TWR 123.8 MHZ

AIRPORT NEAR NAVIGATION AIDS

Type Name Frequency
TACAN Grosseto 109100 KHZ
NDB Grosseto 406 KHZ

METAR / TAF
LIRS 191255Z 22013KT 9999 TS FEW022CB FEW025TCU 32/19 Q1014

RUNWAY INFORMATION

Runway Runway length Runway width Runway elevation Runway displaced threshold Runway heading
03 9823 148 14 317 31
21 9823 148 15 0 211
03R 7729 80 0 0 31
21L 7729 80 0 0 211

AIRPORT FREQUENCIES

Type Name Frequency
APP APP 122.1 MHZ
GND GND 28.035 MHZ
TWR TWR 122.1 MHZ

Flightplan

LAGIUSTINIANA LASTORTA CAPRANICA VETRALLA TUSCANIA CANINO MANCIANO

Air Sicilia Virtual Airways Fleets

AVAILABLE AIRCRAFTS for route at this time in Urbe Airport

At this time no aircraft Air Sicilia Virtual Airways is available at Urbe Airport
Only Charter flights.

79.84 NM

Distance in nautical miles.

€ 68,00

Ticket price for this flight.

0.45 h.

Estimated flight time.



07-08-2018
Aerosoft Professional Flight Planner PFPX

PFPX - Professional Flight Planner X - è un nuovo ed innovativo strumento di pianificazione del volo sviluppato da piloti e dispatcher del mondo reale. È un'aggiunta preziosa e realistica alla tua esperienza di simulaz ....


19-07-2018
Aerosoft Oslo X

L'Aeroporto di Oslo-Gardermoen (IATA: OSL, ICAO: ENGM) è il principale aeroporto norvegese e il 19° in Europa, è situato vicino alla cittadina di Ullensaker nella contea di Akershus e serve la capitale Oslo. Ha sostit ....


21-06-2018
Aerosoft Malpensa Professional P3Dv4

L'Aeroporto di Milano-Malpensa (IATA: MXP, ICAO: LIMC) è un aeroporto italiano situato nella provincia di Varese in Lombardia, ma considerato come il principale aeroporto di Milano.

È il secondo aeroporto ital ....


06-06-2018
1° Raduno Air Sicilia Virtual - parla il C.E.O.

Grande successo per il 1° Raduno di Compagnia dell'Air Sicilia Virtual, che ha visto i membri della Crew presenti il 4 giugno 2018 a Thiene ( VI ) , cimentarsi dal vivo con le reali ....


24-05-2018
Aerosoft Airport Rome XP

Tra le nostre recensioni non poteva mancare certo la nuova uscita Aerosoft per X-Plane, stiamo parlando di Airport Rome XP, finalmente un Add-on pay completo dell'Aeroporto di Roma Fiumicino per gli utilizzatori del simu ....